createdAt,value
2018-01-08T00:02:08.676Z,32.00
2018-01-08T00:04:36.313Z,33.28
2018-01-08T00:07:03.933Z,40.40
2018-01-08T00:09:31.630Z,38.58
2018-01-08T00:12:00.014Z,34.25
2018-01-08T00:14:28.445Z,36.60
2018-01-08T00:16:56.065Z,39.15
2018-01-08T00:19:23.703Z,39.30
2018-01-08T00:21:51.345Z,39.28
2018-01-08T00:24:19.736Z,36.55
2018-01-08T00:26:48.154Z,33.72
2018-01-08T00:29:15.775Z,36.28
2018-01-08T00:31:43.392Z,38.25
2018-01-08T00:34:11.049Z,33.55
2018-01-08T00:36:38.697Z,35.40
2018-01-08T00:39:06.346Z,40.60
2018-01-08T00:41:33.972Z,34.90
2018-01-08T00:44:02.386Z,32.78
2018-01-08T00:46:30.040Z,35.55
2018-01-08T00:48:58.429Z,36.25
2018-01-08T00:51:26.845Z,36.83
2018-01-08T00:53:54.474Z,40.25
2018-01-08T00:56:22.109Z,33.35
2018-01-08T00:58:49.761Z,36.15
2018-01-08T01:01:17.379Z,39.15
2018-01-08T01:03:45.037Z,33.17
2018-01-08T01:06:12.685Z,34.75
2018-01-08T01:08:40.301Z,33.38
2018-01-08T01:11:07.954Z,32.45
2018-01-08T01:13:35.577Z,34.63
2018-01-08T01:16:03.985Z,34.40
2018-01-08T01:18:31.614Z,27.90
2018-01-08T01:20:59.245Z,34.67
2018-01-08T01:23:26.897Z,31.15
2018-01-08T01:25:55.278Z,35.47
2018-01-08T01:28:22.959Z,31.42
2018-01-08T01:30:51.345Z,33.08
2018-01-08T01:33:18.970Z,31.35
2018-01-08T01:35:46.622Z,31.20
2018-01-08T01:38:14.241Z,32.97
2018-01-08T01:43:15.456Z,30.65
2018-01-08T01:45:43.112Z,28.35
2018-01-08T01:48:10.725Z,29.58
2018-01-08T01:50:38.342Z,30.40
2018-01-08T01:53:05.989Z,31.55
2018-01-08T01:55:33.614Z,28.20
2018-01-08T01:58:01.270Z,29.75
2018-01-08T02:00:28.889Z,29.67
2018-01-08T02:02:57.278Z,28.45
2018-01-08T02:05:25.689Z,30.30
2018-01-08T02:07:53.568Z,29.75
2018-01-08T02:10:21.220Z,29.80
2018-01-08T02:12:49.607Z,27.08
2018-01-08T02:15:17.227Z,29.85
2018-01-08T02:17:44.870Z,30.10
2018-01-08T02:20:12.513Z,26.67
2018-01-08T02:22:40.177Z,24.58
2018-01-08T02:25:07.794Z,25.08
2018-01-08T02:27:36.177Z,22.87
2018-01-08T02:30:04.594Z,25.17
2018-01-08T02:32:32.231Z,27.20
2018-01-08T02:35:00.655Z,25.77
2018-01-08T02:37:28.282Z,29.25
2018-01-08T02:39:55.917Z,28.25
2018-01-08T02:42:23.569Z,29.98
2018-01-08T02:44:51.977Z,27.37
2018-01-08T02:47:19.630Z,27.48
2018-01-08T02:49:48.019Z,27.87
2018-01-08T02:52:15.634Z,28.55
2018-01-08T02:54:43.284Z,26.48
2018-01-08T02:57:10.910Z,24.42
2018-01-08T02:59:38.564Z,26.45
2018-01-08T03:02:06.192Z,30.50
2018-01-08T03:04:34.578Z,25.40
2018-01-08T03:07:03.013Z,25.50
2018-01-08T03:09:30.632Z,24.23
2018-01-08T03:11:58.291Z,24.00
2018-01-08T03:14:25.914Z,27.70
2018-01-08T03:16:53.528Z,24.35
2018-01-08T03:19:21.168Z,24.42
2018-01-08T03:21:48.785Z,24.90
2018-01-08T03:24:16.447Z,23.75
2018-01-08T03:26:44.066Z,28.77
2018-01-08T03:29:12.465Z,25.88
2018-01-08T03:31:40.127Z,21.92
2018-01-08T03:34:08.515Z,25.20
2018-01-08T03:36:36.952Z,25.35
2018-01-08T03:39:04.573Z,24.70
2018-01-08T03:41:32.193Z,23.42
2018-01-08T03:43:59.862Z,23.48
2018-01-08T03:46:27.499Z,25.62
2018-01-08T03:48:55.164Z,26.20
2018-01-08T03:51:22.793Z,21.67
2018-01-08T03:53:50.413Z,25.40
2018-01-08T03:56:18.062Z,26.17
2018-01-08T03:58:45.684Z,26.08
2018-01-08T04:01:14.127Z,24.90
2018-01-08T04:03:41.754Z,20.60
2018-01-08T04:06:10.140Z,26.42
2018-01-08T04:08:38.554Z,30.10
2018-01-08T04:11:06.177Z,25.98
2018-01-08T04:13:33.830Z,26.25
2018-01-08T04:16:01.454Z,25.65
2018-01-08T04:18:29.844Z,27.30
2018-01-08T04:20:58.264Z,27.05
2018-01-08T04:23:25.878Z,26.80
2018-01-08T04:25:53.537Z,25.35
2018-01-08T04:28:21.150Z,22.50
2018-01-08T04:30:48.806Z,26.87
2018-01-08T04:33:16.457Z,23.90
2018-01-08T04:35:44.079Z,23.23
2018-01-08T04:38:12.497Z,30.40
2018-01-08T04:40:40.122Z,19.42
2018-01-08T04:43:07.774Z,22.80
2018-01-08T04:45:35.388Z,25.52
2018-01-08T04:48:03.814Z,22.98
2018-01-08T04:50:31.434Z,27.17
2018-01-08T04:52:59.058Z,26.67
2018-01-08T04:55:26.719Z,25.50
2018-01-08T04:57:55.105Z,27.37
2018-01-08T05:00:24.200Z,24.25
2018-01-08T05:02:51.818Z,25.88
2018-01-08T05:05:19.472Z,23.62
2018-01-08T05:07:47.897Z,26.27
2018-01-08T05:10:15.519Z,26.25
2018-01-08T05:12:43.189Z,26.80
2018-01-08T05:15:10.818Z,29.77
2018-01-08T05:17:38.433Z,29.77
2018-01-08T05:20:06.090Z,26.75
2018-01-08T05:22:33.708Z,25.12
2018-01-08T05:25:01.373Z,28.85
2018-01-08T05:27:29.766Z,28.75
2018-01-08T05:29:58.202Z,27.00
2018-01-08T05:32:25.844Z,27.40
2018-01-08T05:34:53.462Z,29.80
2018-01-08T05:37:21.105Z,27.60
2018-01-08T05:39:48.736Z,23.75
2018-01-08T05:42:16.358Z,29.15
2018-01-08T05:44:44.006Z,21.90
2018-01-08T05:47:12.397Z,23.45
2018-01-08T05:49:40.813Z,27.15
2018-01-08T05:52:08.469Z,25.08
2018-01-08T05:54:36.857Z,26.02
2018-01-08T05:57:05.275Z,24.85
2018-01-08T05:59:32.898Z,26.37
2018-01-08T06:02:00.593Z,27.17
2018-01-08T06:04:28.455Z,28.87
2018-01-08T06:06:56.857Z,23.60
2018-01-08T06:09:24.502Z,28.23
2018-01-08T06:11:52.125Z,24.75
2018-01-08T06:14:20.533Z,24.75
2018-01-08T06:16:48.147Z,27.13
2018-01-08T06:19:15.769Z,24.92
2018-01-08T06:21:43.418Z,23.87
2018-01-08T06:24:11.050Z,26.85
2018-01-08T06:26:38.698Z,22.42
2018-01-08T06:29:06.355Z,28.60
2018-01-08T06:31:34.785Z,23.25
2018-01-08T06:34:02.434Z,26.73
2018-01-08T06:36:30.066Z,21.70
2018-01-08T06:38:57.749Z,23.27
2018-01-08T06:41:25.371Z,22.15
2018-01-08T06:43:52.990Z,26.33
2018-01-08T06:46:20.642Z,26.20
2018-01-08T06:48:48.260Z,25.80
2018-01-08T06:51:17.251Z,24.85
2018-01-08T06:53:45.658Z,26.33
2018-01-08T06:56:13.303Z,28.90
2018-01-08T06:58:40.959Z,25.05
2018-01-08T07:01:08.574Z,28.33
2018-01-08T07:03:36.462Z,25.73
2018-01-08T07:06:04.838Z,26.90
2018-01-08T07:08:32.461Z,24.35
2018-01-08T07:11:00.363Z,24.30
2018-01-08T07:13:27.991Z,30.12
2018-01-08T07:15:56.397Z,25.70
2018-01-08T07:18:24.009Z,25.75
2018-01-08T07:20:51.678Z,27.13
2018-01-08T07:23:19.334Z,27.40
2018-01-08T07:25:46.946Z,25.10
2018-01-08T07:28:14.595Z,29.23
2018-01-08T07:30:42.214Z,27.62
2018-01-08T07:33:10.597Z,27.67
2018-01-08T07:35:38.244Z,26.58
2018-01-08T07:38:05.855Z,31.12
2018-01-08T07:40:33.511Z,25.62
2018-01-08T07:43:01.133Z,29.08
2018-01-08T07:45:28.778Z,21.75
2018-01-08T07:47:56.423Z,25.67
2018-01-08T07:50:24.040Z,26.37
2018-01-08T07:52:51.702Z,26.37
2018-01-08T07:55:19.326Z,26.23
2018-01-08T07:57:46.944Z,34.03
2018-01-08T08:00:14.606Z,27.10
2018-01-08T08:02:42.230Z,26.35
2018-01-08T08:05:10.651Z,28.20
2018-01-08T08:07:38.262Z,29.63
2018-01-08T08:10:05.897Z,27.60
2018-01-08T08:12:33.542Z,26.80
2018-01-08T08:15:01.922Z,30.58
2018-01-08T08:17:29.668Z,25.30
2018-01-08T08:19:57.286Z,23.45
2018-01-08T08:22:24.918Z,26.42
2018-01-08T08:24:52.575Z,25.00
2018-01-08T08:27:20.186Z,24.73
2018-01-08T08:29:47.838Z,27.58
2018-01-08T08:32:15.462Z,28.87
2018-01-08T08:34:43.854Z,25.83
2018-01-08T08:37:12.270Z,30.02
2018-01-08T08:39:39.975Z,22.65
2018-01-08T08:42:07.636Z,30.00
2018-01-08T08:44:35.260Z,27.70
2018-01-08T08:47:03.655Z,24.48
2018-01-08T08:49:32.078Z,25.25
2018-01-08T08:51:59.689Z,25.67
2018-01-08T08:54:27.341Z,26.83
2018-01-08T08:56:54.968Z,27.17
2018-01-08T08:59:23.356Z,27.25
2018-01-08T09:01:51.906Z,26.33
2018-01-08T09:04:19.530Z,24.45
2018-01-08T09:06:47.948Z,28.12
2018-01-08T09:09:15.596Z,25.00
2018-01-08T09:11:43.981Z,29.73
2018-01-08T09:14:11.630Z,25.50
2018-01-08T09:16:39.242Z,27.75
2018-01-08T09:19:07.661Z,29.55
2018-01-08T09:21:35.282Z,31.80
2018-01-08T09:24:02.918Z,32.50
2018-01-08T09:26:30.567Z,26.37
2018-01-08T09:28:58.186Z,28.10
2018-01-08T09:31:25.835Z,25.98
2018-01-08T09:33:53.450Z,28.85
2018-01-08T09:36:21.075Z,24.77
2018-01-08T09:38:48.729Z,26.15
2018-01-08T09:41:17.113Z,27.70
2018-01-08T09:43:45.526Z,26.70
2018-01-08T09:46:13.149Z,28.95
2018-01-08T09:48:40.773Z,27.92
2018-01-08T09:51:08.422Z,26.00
2018-01-08T09:53:36.815Z,26.83
2018-01-08T09:56:05.230Z,27.37
2018-01-08T09:58:32.842Z,26.15
2018-01-08T10:01:00.474Z,25.70
2018-01-08T10:03:39.970Z,24.63
2018-01-08T10:06:19.350Z,25.35
2018-01-08T10:08:58.780Z,22.60
2018-01-08T10:11:38.293Z,24.92
2018-01-08T10:14:17.863Z,24.92
2018-01-08T10:16:57.297Z,23.35
2018-01-08T10:19:36.778Z,22.40
2018-01-08T10:22:04.403Z,25.77
2018-01-08T10:24:32.067Z,23.20
2018-01-08T10:27:00.462Z,20.60
2018-01-08T10:29:28.853Z,21.60
2018-01-08T10:31:57.269Z,21.95
2018-01-08T10:34:24.889Z,22.10
2018-01-08T10:36:52.540Z,22.60
2018-01-08T10:39:20.165Z,22.58
2018-01-08T10:41:53.519Z,24.58
2018-01-08T10:44:26.758Z,24.45
2018-01-08T10:47:00.030Z,24.45
2018-01-08T10:49:33.345Z,23.38
2018-01-08T10:52:00.496Z,21.58
2018-01-08T10:54:30.626Z,23.73
2018-01-08T10:56:58.244Z,23.73
2018-01-08T10:59:25.898Z,23.15
2018-01-08T11:01:59.166Z,22.37
2018-01-08T11:04:26.823Z,17.40
2018-01-08T11:06:55.206Z,23.48
2018-01-08T11:09:23.631Z,23.25
2018-01-08T11:11:51.245Z,20.40
2018-01-08T11:14:18.880Z,23.90
2018-01-08T11:16:46.536Z,22.92
2018-01-08T11:19:14.924Z,24.52
2018-01-08T11:21:43.351Z,22.35
2018-01-08T11:24:10.965Z,26.00
2018-01-08T11:26:38.591Z,24.17
2018-01-08T11:29:06.249Z,26.27
2018-01-08T11:31:33.870Z,24.75
2018-01-08T11:34:01.529Z,25.70
2018-01-08T11:36:29.155Z,23.25
2018-01-08T11:38:57.547Z,23.35
2018-01-08T11:41:25.969Z,23.90
2018-01-08T11:43:53.596Z,22.23
2018-01-08T11:46:21.247Z,26.48
2018-01-08T11:48:48.867Z,22.60
2018-01-08T11:51:17.257Z,24.98
2018-01-08T11:53:45.668Z,26.73
2018-01-08T11:56:13.290Z,25.02
2018-01-08T11:58:40.947Z,21.65
2018-01-08T12:01:11.525Z,24.77
2018-01-08T12:03:39.149Z,25.30
2018-01-08T12:06:06.821Z,21.27
2018-01-08T12:08:34.442Z,25.83
2018-01-08T12:11:02.101Z,23.67
2018-01-08T12:13:29.726Z,23.83
2018-01-08T12:15:58.125Z,23.45
2018-01-08T12:18:25.790Z,24.83
2018-01-08T12:20:53.430Z,24.12
2018-01-08T12:23:21.078Z,25.45
2018-01-08T12:25:48.694Z,22.27
2018-01-08T12:28:16.328Z,22.40
2018-01-08T12:30:43.979Z,21.35
2018-01-08T12:33:11.611Z,26.75
2018-01-08T12:35:39.265Z,25.83
2018-01-08T12:38:06.892Z,24.40
2018-01-08T12:40:34.513Z,28.95
2018-01-08T12:43:02.164Z,27.67
2018-01-08T12:45:29.814Z,24.12
2018-01-08T12:47:57.463Z,24.80
2018-01-08T12:50:25.854Z,26.17
2018-01-08T12:52:53.480Z,29.15
2018-01-08T12:55:21.145Z,28.52
2018-01-08T12:57:48.762Z,27.92
2018-01-08T13:00:16.419Z,27.02
2018-01-08T13:02:44.033Z,27.58
2018-01-08T13:05:12.419Z,26.92
2018-01-08T13:07:40.070Z,27.25
2018-01-08T13:10:07.689Z,26.65
2018-01-08T13:12:35.337Z,25.77
2018-01-08T13:15:02.954Z,28.25
2018-01-08T13:17:30.567Z,26.60
2018-01-08T13:19:58.219Z,29.35
2018-01-08T13:22:25.838Z,30.50
2018-01-08T13:24:53.486Z,31.70
2018-01-08T13:27:21.115Z,28.87
2018-01-08T13:29:48.826Z,27.02
2018-01-08T13:32:16.485Z,30.08
2018-01-08T13:34:44.099Z,28.75
2018-01-08T13:37:11.765Z,27.65
2018-01-08T13:39:39.386Z,29.27
2018-01-08T13:42:07.001Z,30.27
2018-01-08T13:44:34.649Z,26.40
2018-01-08T13:47:02.262Z,31.48
2018-01-08T13:49:29.910Z,29.45
2018-01-08T13:51:57.521Z,27.75
2018-01-08T13:54:25.145Z,32.83
2018-01-08T13:56:52.793Z,27.55
2018-01-08T13:59:21.175Z,28.70
2018-01-08T14:01:49.590Z,27.48
2018-01-08T14:04:17.217Z,27.95
2018-01-08T14:06:44.840Z,26.95
2018-01-08T14:09:12.499Z,24.92
2018-01-08T14:11:40.885Z,26.05
2018-01-08T14:14:09.295Z,26.25
2018-01-08T14:16:36.913Z,25.35
2018-01-08T14:19:04.529Z,25.50
2018-01-08T14:21:32.941Z,28.87
2018-01-08T14:24:00.573Z,28.85
2018-01-08T14:26:28.221Z,28.45
2018-01-08T14:28:55.839Z,27.10
2018-01-08T14:31:24.253Z,28.83
2018-01-08T14:33:51.908Z,24.15
2018-01-08T14:36:20.304Z,26.83
2018-01-08T14:38:47.959Z,25.50
2018-01-08T14:41:15.569Z,26.00
2018-01-08T14:43:43.227Z,27.87
2018-01-08T14:46:11.641Z,28.12
2018-01-08T14:48:39.257Z,25.00
2018-01-08T14:51:06.906Z,31.42
2018-01-08T14:53:34.525Z,30.30
2018-01-08T14:56:02.911Z,29.00
2018-01-08T14:58:30.550Z,26.20
2018-01-08T15:00:58.169Z,35.90
2018-01-08T15:03:26.589Z,29.05
2018-01-08T15:05:54.222Z,26.75
2018-01-08T15:08:21.841Z,31.48
2018-01-08T15:10:49.498Z,32.20
2018-01-08T15:13:17.110Z,28.20
2018-01-08T15:15:44.769Z,32.60
2018-01-08T15:18:12.389Z,29.90
2018-01-08T15:20:40.009Z,28.90
2018-01-08T15:23:07.669Z,27.13
2018-01-08T15:25:35.291Z,30.30
2018-01-08T15:28:02.958Z,29.55
2018-01-08T15:30:30.583Z,30.27
2018-01-08T15:32:58.976Z,30.12
2018-01-08T15:35:26.636Z,30.70
2018-01-08T15:37:55.043Z,32.85
2018-01-08T15:40:23.470Z,31.60
2018-01-08T15:42:51.106Z,31.50
2018-01-08T15:45:19.494Z,31.92
2018-01-08T15:47:47.917Z,30.52
2018-01-08T15:50:15.542Z,28.60
2018-01-08T15:52:43.193Z,29.10
2018-01-08T15:55:10.809Z,28.10
2018-01-08T15:57:39.262Z,32.17
2018-01-08T16:00:06.931Z,31.05
2018-01-08T16:02:34.555Z,29.73
2018-01-08T16:05:02.974Z,32.75
2018-01-08T16:07:30.584Z,32.10
2018-01-08T16:09:58.213Z,32.58
2018-01-08T16:12:25.868Z,32.30
2018-01-08T16:14:54.262Z,35.22
2018-01-08T16:17:22.685Z,31.12
2018-01-08T16:19:50.303Z,40.97
2018-01-08T16:22:17.930Z,38.58
2018-01-08T16:24:45.574Z,50.63
2018-01-08T16:27:13.967Z,64.35
2018-01-08T16:29:42.389Z,55.65
2018-01-08T16:32:10.008Z,45.72
2018-01-08T16:34:37.633Z,46.53
2018-01-08T16:37:05.285Z,48.87
2018-01-08T16:39:32.909Z,36.67
2018-01-08T16:42:00.569Z,34.75
2018-01-08T16:44:28.194Z,32.63
2018-01-08T16:46:56.581Z,29.95
2018-01-08T16:49:24.239Z,35.17
2018-01-08T16:51:51.860Z,30.85
2018-01-08T16:54:19.509Z,33.08
2018-01-08T16:56:47.123Z,30.98
2018-01-08T16:59:14.746Z,33.65
2018-01-08T17:01:42.404Z,34.38
2018-01-08T17:04:10.031Z,35.20
2018-01-08T17:06:37.681Z,28.98
2018-01-08T17:09:06.082Z,32.88
2018-01-08T17:11:33.726Z,37.45
2018-01-08T17:14:01.387Z,34.00
2018-01-08T17:16:29.009Z,32.78
2018-01-08T17:18:57.425Z,28.90
2018-01-08T17:21:25.045Z,31.48
2018-01-08T17:23:52.671Z,32.25
2018-01-08T17:26:20.337Z,35.35
2018-01-08T17:28:47.962Z,33.13
2018-01-08T17:31:15.615Z,35.00
2018-01-08T17:33:43.229Z,35.90
2018-01-08T17:36:11.618Z,32.70
2018-01-08T17:38:40.064Z,32.08
2018-01-08T17:41:07.677Z,34.92
2018-01-08T17:43:35.427Z,35.53
2018-01-08T17:46:03.845Z,33.65
2018-01-08T17:48:31.464Z,35.83
2018-01-08T17:50:59.118Z,34.45
2018-01-08T17:53:27.008Z,39.38
2018-01-08T17:55:54.677Z,37.72
2018-01-08T17:58:22.297Z,34.80
2018-01-08T18:00:49.920Z,36.28
2018-01-08T18:03:17.574Z,36.10
2018-01-08T18:05:45.965Z,33.38
2018-01-08T18:08:14.455Z,33.50
2018-01-08T18:10:42.122Z,34.92
2018-01-08T18:13:09.755Z,36.95
2018-01-08T18:15:37.422Z,31.75
2018-01-08T18:18:05.046Z,31.73
2018-01-08T18:20:32.698Z,31.95
2018-01-08T18:23:00.324Z,34.83
2018-01-08T18:25:28.718Z,30.12
2018-01-08T18:27:56.376Z,36.33
2018-01-08T18:30:24.769Z,36.20
2018-01-08T18:32:52.487Z,38.05
2018-01-08T18:35:20.101Z,34.50
2018-01-08T18:37:47.733Z,35.03
2018-01-08T18:40:15.391Z,36.90
2018-01-08T18:42:43.009Z,36.10
2018-01-08T18:45:10.666Z,36.90
2018-01-08T18:47:38.333Z,34.55
2018-01-08T18:50:05.945Z,33.03
2018-01-08T18:52:33.607Z,28.92
2018-01-08T18:55:01.242Z,31.70
2018-01-08T18:57:29.057Z,38.17
2018-01-08T18:59:56.691Z,36.28
2018-01-08T19:02:24.305Z,30.12
2018-01-08T19:04:51.982Z,35.78
2018-01-08T19:07:19.602Z,32.58
2018-01-08T19:09:48.023Z,34.92
2018-01-08T19:12:15.641Z,35.80
2018-01-08T19:14:43.258Z,36.50
2018-01-08T19:17:10.917Z,36.47
2018-01-08T19:19:38.585Z,36.83
2018-01-08T19:22:06.994Z,37.10
2018-01-08T19:24:34.621Z,37.22
2018-01-08T19:27:02.273Z,38.35
2018-01-08T19:29:29.896Z,34.50
2018-01-08T19:31:58.300Z,31.87
2018-01-08T19:34:25.971Z,37.60
2018-01-08T19:36:54.358Z,32.08
2018-01-08T19:39:22.776Z,34.67
2018-01-08T19:41:50.393Z,32.17
2018-01-08T19:44:18.022Z,31.23
2018-01-08T19:46:46.509Z,28.40
2018-01-08T19:49:14.128Z,33.40
2018-01-08T19:51:41.786Z,31.60
2018-01-08T19:54:09.434Z,29.10
2018-01-08T19:56:37.048Z,33.28
2018-01-08T19:59:04.709Z,30.65
2018-01-08T20:01:32.353Z,32.38
2018-01-08T20:03:59.966Z,30.77
2018-01-08T20:06:27.629Z,28.42
2018-01-08T20:08:55.253Z,25.98
2018-01-08T20:11:23.637Z,27.50
2018-01-08T20:13:57.017Z,31.25
2018-01-08T20:16:25.754Z,31.70
2018-01-08T20:18:54.234Z,32.08
2018-01-08T20:21:21.854Z,33.80
2018-01-08T20:23:49.482Z,30.62
2018-01-08T20:26:17.131Z,29.23
2018-01-08T20:28:44.769Z,29.67
2018-01-08T20:31:12.636Z,28.70
2018-01-08T20:33:41.023Z,28.45
2018-01-08T20:36:09.017Z,30.80
2018-01-08T20:38:36.680Z,28.70
2018-01-08T20:41:05.069Z,30.75
2018-01-08T20:43:33.498Z,28.05
2018-01-08T20:46:01.250Z,23.30
2018-01-08T20:48:28.874Z,25.35
2018-01-08T20:50:56.522Z,28.98
2018-01-08T20:53:24.141Z,26.75
2018-01-08T20:55:51.765Z,30.75
2018-01-08T20:58:19.428Z,26.73
2018-01-08T21:00:47.039Z,29.83
2018-01-08T21:03:14.674Z,29.17
2018-01-08T21:05:42.326Z,31.70
2018-01-08T21:08:09.934Z,27.05
2018-01-08T21:10:39.828Z,25.67
2018-01-08T21:13:07.556Z,26.92
2018-01-08T21:15:35.171Z,24.80
2018-01-08T21:18:02.827Z,28.77
2018-01-08T21:20:30.441Z,25.67
2018-01-08T21:22:58.866Z,26.00
2018-01-08T21:25:26.482Z,24.30
2018-01-08T21:27:54.125Z,27.02
2018-01-08T21:30:21.796Z,25.50
2018-01-08T21:32:49.409Z,29.17
2018-01-08T21:35:17.070Z,30.83
2018-01-08T21:37:44.701Z,30.40
2018-01-08T21:40:12.325Z,26.60
2018-01-08T21:42:39.986Z,23.80
2018-01-08T21:45:07.622Z,25.00
2018-01-08T21:47:35.309Z,25.42
2018-01-08T21:50:03.018Z,24.83
2018-01-08T21:52:31.826Z,26.87
2018-01-08T21:55:00.607Z,27.60
2018-01-08T21:57:28.221Z,29.63
2018-01-08T21:59:56.646Z,31.23
2018-01-08T22:02:24.262Z,27.25
2018-01-08T22:04:51.884Z,28.60
2018-01-08T22:07:19.535Z,28.58
2018-01-08T22:09:47.926Z,29.17
2018-01-08T22:12:16.360Z,27.37
2018-01-08T22:14:43.977Z,26.37
2018-01-08T22:17:11.595Z,28.40
2018-01-08T22:19:39.279Z,29.77
2018-01-08T22:22:06.917Z,26.85
2018-01-08T22:24:35.335Z,31.25
2018-01-08T22:27:02.958Z,28.42
2018-01-08T22:29:30.588Z,23.87
2018-01-08T22:31:58.243Z,25.42
2018-01-08T22:34:25.856Z,25.52
2018-01-08T22:36:54.437Z,31.95
2018-01-08T22:39:22.062Z,26.27
2018-01-08T22:41:50.461Z,27.58
2018-01-08T22:44:18.212Z,26.65
2018-01-08T22:46:45.992Z,28.20
2018-01-08T22:49:13.651Z,32.67
2018-01-08T22:51:41.283Z,28.67
2018-01-08T22:54:08.910Z,31.55
2018-01-08T22:56:36.557Z,27.80
2018-01-08T22:59:04.197Z,28.30
2018-01-08T23:01:32.637Z,31.95
2018-01-08T23:04:00.257Z,29.92
2018-01-08T23:06:28.663Z,27.08
2018-01-08T23:08:56.313Z,30.90
2018-01-08T23:11:23.935Z,31.15
2018-01-08T23:13:51.603Z,32.25
2018-01-08T23:16:19.217Z,24.80
2018-01-08T23:18:46.846Z,30.80
2018-01-08T23:21:14.511Z,29.30
2018-01-08T23:23:42.154Z,29.48
2018-01-08T23:26:10.586Z,24.75
2018-01-08T23:28:38.225Z,28.70
2018-01-08T23:31:06.617Z,27.83
2018-01-08T23:33:35.046Z,28.70
2018-01-08T23:36:02.682Z,27.25
2018-01-08T23:38:30.347Z,24.75
2018-01-08T23:40:57.965Z,27.40
2018-01-08T23:43:25.577Z,26.50
2018-01-08T23:45:53.232Z,29.55
2018-01-08T23:48:20.877Z,27.73
2018-01-08T23:50:48.543Z,31.48
2018-01-08T23:53:16.932Z,28.02
2018-01-08T23:55:45.338Z,27.08
2018-01-08T23:58:12.998Z,29.33
